createdAt,value
2023-08-29T00:01:59.963Z,101731.03
2023-08-29T00:04:26.595Z,101723.06
2023-08-29T00:06:53.296Z,101722.28
2023-08-29T00:09:22.851Z,101724.75
2023-08-29T00:11:54.010Z,101722.38
2023-08-29T00:14:20.675Z,101716.44
2023-08-29T00:16:47.298Z,101716.44
2023-08-29T00:19:16.124Z,101713.28
2023-08-29T00:21:43.082Z,101710.13
2023-08-29T00:24:10.053Z,101702.16
2023-08-29T00:26:36.774Z,101706.19
2023-08-29T00:29:03.418Z,101712.25
2023-08-29T00:31:35.027Z,101705.84
2023-08-29T00:34:01.661Z,101707.06
2023-08-29T00:36:28.302Z,101707.53
2023-08-29T00:38:54.961Z,101703.16
2023-08-29T00:41:21.576Z,101705.63
2023-08-29T00:43:48.240Z,101695.63
2023-08-29T00:46:18.104Z,101699.66
2023-08-29T00:48:45.039Z,101699.31
2023-08-29T00:51:11.893Z,101698.53
2023-08-29T00:53:41.082Z,101692.59
2023-08-29T00:56:11.117Z,101691.44
2023-08-29T00:58:37.808Z,101696.25
2023-08-29T01:01:04.786Z,101683.94
2023-08-29T01:03:31.945Z,101692.34
2023-08-29T01:05:58.582Z,101689.19
2023-08-29T01:08:25.662Z,101681.19
2023-08-29T01:11:26.097Z,101679.63
2023-08-29T01:13:58.438Z,101690.03
2023-08-29T01:16:40.238Z,101686.88
2023-08-29T01:19:14.197Z,101684.53
2023-08-29T01:21:50.876Z,101680.16
2023-08-29T01:24:31.490Z,101675.44
2023-08-29T01:27:01.957Z,101677.44
2023-08-29T01:29:29.281Z,101678.69
2023-08-29T01:31:58.841Z,101667.13
2023-08-29T01:34:26.379Z,101668.34
2023-08-29T01:36:53.298Z,101671.59
2023-08-29T01:39:22.377Z,101667.66
2023-08-29T01:41:48.998Z,101668.91
2023-08-29T01:44:15.622Z,101671.38
2023-08-29T01:46:42.249Z,101676.97
2023-08-29T01:49:09.050Z,101673.38
2023-08-29T01:51:35.735Z,101667.88
2023-08-29T01:54:02.441Z,101685.44
2023-08-29T01:56:33.620Z,101679.50
2023-08-29T01:59:00.513Z,101680.28
2023-08-29T02:01:31.540Z,101678.72
2023-08-29T02:04:00.793Z,101676.34
2023-08-29T02:06:32.226Z,101674.00
2023-08-29T02:08:58.869Z,101667.59
2023-08-29T02:11:25.567Z,101660.44
2023-08-29T02:13:52.176Z,101663.69
2023-08-29T02:16:18.872Z,101658.50
2023-08-29T02:18:45.503Z,101663.34
2023-08-29T02:21:12.139Z,101657.38
2023-08-29T02:23:40.973Z,101667.00
2023-08-29T02:26:10.206Z,101671.06
2023-08-29T02:28:38.710Z,101671.50
2023-08-29T02:31:14.660Z,101675.50
2023-08-29T02:33:44.557Z,101673.94
2023-08-29T02:36:11.192Z,101677.16
2023-08-29T02:38:40.141Z,101672.81
2023-08-29T02:41:07.607Z,101677.63
2023-08-29T02:43:34.262Z,101675.25
2023-08-29T02:46:01.022Z,101668.06
2023-08-29T02:48:29.052Z,101672.13
2023-08-29T02:51:00.464Z,101669.75
2023-08-29T02:53:27.134Z,101664.56
2023-08-29T02:55:54.100Z,101658.97
2023-08-29T02:58:21.557Z,101658.22
2023-08-29T03:00:49.222Z,101660.66
2023-08-29T03:03:17.447Z,101653.03
2023-08-29T03:05:53.872Z,101655.47
2023-08-29T03:08:23.567Z,101649.13
2023-08-29T03:10:51.525Z,101653.91
2023-08-29T03:13:20.920Z,101651.56
2023-08-29T03:15:50.316Z,101650.78
2023-08-29T03:18:19.051Z,101647.63
2023-08-29T03:20:48.001Z,101643.25
2023-08-29T03:23:14.763Z,101645.28
2023-08-29T03:25:44.234Z,101640.88
2023-08-29T03:28:10.855Z,101642.13
2023-08-29T03:30:37.574Z,101641.34
2023-08-29T03:33:04.710Z,101635.38
2023-08-29T03:35:31.446Z,101633.78
2023-08-29T03:37:58.097Z,101633.78
2023-08-29T03:40:24.739Z,101630.66
2023-08-29T03:42:51.390Z,101632.69
2023-08-29T03:45:20.603Z,101631.09
2023-08-29T03:47:47.369Z,101628.28
2023-08-29T03:50:14.070Z,101624.34
2023-08-29T03:52:40.728Z,101627.16
2023-08-29T03:55:07.713Z,101617.19
2023-08-29T03:57:34.472Z,101614.84
2023-08-29T04:00:08.067Z,101617.66
2023-08-29T04:02:37.010Z,101614.50
2023-08-29T04:05:16.244Z,101613.69
2023-08-29T04:07:43.517Z,101614.91
2023-08-29T04:10:10.722Z,101614.16
2023-08-29T04:12:42.171Z,101610.56
2023-08-29T04:15:09.566Z,101601.81
2023-08-29T04:17:41.033Z,101603.03
2023-08-29T04:20:14.128Z,101598.22
2023-08-29T04:22:43.934Z,101601.47
2023-08-29T04:25:10.534Z,101602.66
2023-08-29T04:27:39.514Z,101603.91
2023-08-29T04:30:06.843Z,101607.91
2023-08-29T04:32:35.684Z,101600.75
2023-08-29T04:35:02.439Z,101599.19
2023-08-29T04:37:31.324Z,101601.97
2023-08-29T04:40:00.887Z,101594.81
2023-08-29T04:42:28.061Z,101611.59
2023-08-29T04:44:55.227Z,101613.22
2023-08-29T04:47:25.260Z,101608.09
2023-08-29T04:49:51.989Z,101608.09
2023-08-29T04:52:18.596Z,101604.50
2023-08-29T04:54:45.239Z,101605.72
2023-08-29T04:57:14.424Z,101611.75
2023-08-29T04:59:41.768Z,101610.19
2023-08-29T05:02:09.499Z,101617.00
2023-08-29T05:04:36.433Z,101615.44
2023-08-29T05:07:03.104Z,101622.22
2023-08-29T05:09:31.840Z,101624.28
2023-08-29T05:11:58.440Z,101616.28
2023-08-29T05:14:25.068Z,101623.47
2023-08-29T05:16:52.365Z,101625.91
2023-08-29T05:19:19.018Z,101624.69
2023-08-29T05:21:48.036Z,101627.13
2023-08-29T05:24:14.659Z,101639.13
2023-08-29T05:26:41.309Z,101636.75
2023-08-29T05:29:08.142Z,101633.97
2023-08-29T05:31:34.817Z,101640.34
2023-08-29T05:34:01.442Z,101642.34
2023-08-29T05:36:28.051Z,101642.00
2023-08-29T05:38:54.780Z,101657.19
2023-08-29T05:41:22.172Z,101656.44
2023-08-29T05:43:48.839Z,101660.78
2023-08-29T05:46:15.824Z,101660.78
2023-08-29T05:48:45.384Z,101653.19
2023-08-29T05:51:12.075Z,101652.41
2023-08-29T05:53:38.707Z,101641.66
2023-08-29T05:56:07.853Z,101643.22
2023-08-29T05:58:37.533Z,101638.84
2023-08-29T06:01:07.759Z,101642.00
2023-08-29T06:03:37.561Z,101651.59
2023-08-29T06:06:04.766Z,101654.00
2023-08-29T06:08:34.573Z,101656.78
2023-08-29T06:11:04.911Z,101649.50
2023-08-29T06:13:31.930Z,101653.09
2023-08-29T06:15:58.767Z,101653.47
2023-08-29T06:18:28.414Z,101660.63
2023-08-29T06:20:55.080Z,101652.59
2023-08-29T06:23:21.676Z,101650.91
2023-08-29T06:25:50.267Z,101649.72
2023-08-29T06:28:16.999Z,101640.06
2023-08-29T06:30:43.747Z,101648.06
2023-08-29T06:33:10.646Z,101650.00
2023-08-29T06:35:40.580Z,101646.00
2023-08-29T06:38:09.966Z,101653.50
2023-08-29T06:40:36.978Z,101648.25
2023-08-29T06:43:03.866Z,101635.03
2023-08-29T06:45:32.753Z,101638.53
2023-08-29T06:47:59.386Z,101620.50
2023-08-29T06:50:26.028Z,101620.09
2023-08-29T06:52:52.622Z,101624.81
2023-08-29T06:55:19.235Z,101630.75
2023-08-29T06:57:45.935Z,101624.69
2023-08-29T07:00:23.906Z,101627.09
2023-08-29T07:02:52.158Z,101636.59
2023-08-29T07:05:18.989Z,101636.94
2023-08-29T07:07:45.626Z,101644.47
2023-08-29T07:10:17.743Z,101639.31
2023-08-29T07:12:44.384Z,101633.63
2023-08-29T07:15:13.586Z,101630.91
2023-08-29T07:17:42.285Z,101627.91
2023-08-29T07:20:10.592Z,101630.16
2023-08-29T07:22:44.454Z,101631.63
2023-08-29T07:25:13.838Z,101641.56
2023-08-29T07:27:40.855Z,101633.03
2023-08-29T07:30:16.570Z,101629.31
2023-08-29T07:32:43.966Z,101624.41
2023-08-29T07:35:13.004Z,101619.94
2023-08-29T07:37:41.878Z,101623.41
2023-08-29T07:40:10.181Z,101626.09
2023-08-29T07:42:36.849Z,101630.84
2023-08-29T07:45:04.288Z,101627.59
2023-08-29T07:47:35.915Z,101629.50
2023-08-29T07:50:02.643Z,101633.00
2023-08-29T07:52:29.408Z,101636.47
2023-08-29T07:54:59.434Z,101631.97
2023-08-29T07:57:26.082Z,101639.16
2023-08-29T07:59:52.799Z,101633.09
2023-08-29T08:02:19.427Z,101623.81
2023-08-29T08:04:46.093Z,101628.19
2023-08-29T08:07:12.750Z,101623.69
2023-08-29T08:09:39.420Z,101633.00
2023-08-29T08:12:09.316Z,101627.19
2023-08-29T08:14:35.960Z,101623.81
2023-08-29T08:17:04.754Z,101623.69
2023-08-29T08:19:31.464Z,101618.41
2023-08-29T08:22:01.024Z,101627.06
2023-08-29T08:24:30.158Z,101624.94
2023-08-29T08:26:56.760Z,101621.59
2023-08-29T08:29:23.517Z,101617.53
2023-08-29T08:31:53.200Z,101618.19
2023-08-29T08:34:19.841Z,101616.41
2023-08-29T08:36:48.822Z,101608.31
2023-08-29T08:39:17.688Z,101605.84
2023-08-29T08:41:44.996Z,101601.34
2023-08-29T08:44:16.914Z,101603.13
2023-08-29T08:46:44.810Z,101602.53
2023-08-29T08:49:16.250Z,101605.25
2023-08-29T08:51:43.048Z,101606.03
2023-08-29T08:54:12.932Z,101607.84
2023-08-29T08:56:39.994Z,101601.69
2023-08-29T08:59:06.757Z,101604.28
2023-08-29T09:01:33.487Z,101599.56
2023-08-29T09:04:05.011Z,101594.06
2023-08-29T09:06:31.741Z,101591.84
2023-08-29T09:09:10.691Z,101581.84
2023-08-29T09:11:42.889Z,101579.81
2023-08-29T09:14:14.183Z,101584.53
2023-08-29T09:16:44.163Z,101574.09
2023-08-29T09:19:10.830Z,101581.94
2023-08-29T09:21:43.546Z,101581.03
2023-08-29T09:24:13.949Z,101584.97
2023-08-29T09:26:42.047Z,101582.94
2023-08-29T09:29:19.966Z,101580.69
2023-08-29T09:31:50.081Z,101584.41
2023-08-29T09:34:32.997Z,101579.13
2023-08-29T09:37:04.542Z,101582.38
2023-08-29T09:39:31.317Z,101584.84
2023-08-29T09:42:08.923Z,101580.50
2023-08-29T09:44:38.091Z,101568.13
2023-08-29T09:47:10.739Z,101577.34
2023-08-29T09:49:44.534Z,101573.28
2023-08-29T09:52:11.728Z,101574.09
2023-08-29T09:54:50.963Z,101570.16
2023-08-29T09:57:20.910Z,101566.13
2023-08-29T09:59:48.152Z,101562.41
2023-08-29T10:02:19.801Z,101563.06
2023-08-29T10:04:50.691Z,101557.78
2023-08-29T10:07:23.260Z,101553.75
2023-08-29T10:09:50.211Z,101558.09
2023-08-29T10:12:20.297Z,101562.84
2023-08-29T10:14:48.206Z,101561.47
2023-08-29T10:17:29.935Z,101559.75
2023-08-29T10:20:00.918Z,101561.56
2023-08-29T10:22:31.316Z,101548.63
2023-08-29T10:25:02.184Z,101554.59
2023-08-29T10:27:31.122Z,101558.63
2023-08-29T10:29:58.034Z,101550.19
2023-08-29T10:32:28.003Z,101550.50
2023-08-29T10:34:57.528Z,101546.69
2023-08-29T10:37:31.532Z,101548.25
2023-08-29T10:40:12.910Z,101549.94
2023-08-29T10:43:01.918Z,101547.47
2023-08-29T10:46:06.042Z,101544.84
2023-08-29T10:48:47.617Z,101531.94
2023-08-29T10:51:16.167Z,101535.41
2023-08-29T10:53:48.967Z,101539.31
2023-08-29T10:56:18.756Z,101533.25
2023-08-29T10:58:54.062Z,101529.66
2023-08-29T11:01:29.699Z,101535.91
2023-08-29T11:03:58.007Z,101532.66
2023-08-29T11:06:59.396Z,101534.09
2023-08-29T11:09:29.527Z,101535.41
2023-08-29T11:12:18.178Z,101529.28
2023-08-29T11:14:56.757Z,101529.53
2023-08-29T11:17:24.874Z,101531.47
2023-08-29T11:19:59.811Z,101531.81
2023-08-29T11:22:31.034Z,101533.41
2023-08-29T11:24:58.862Z,101533.16
2023-08-29T11:27:32.579Z,101527.53
2023-08-29T11:32:36.060Z,101529.22
2023-08-29T11:35:05.566Z,101514.34
2023-08-29T11:37:35.770Z,101526.13
2023-08-29T11:40:11.912Z,101522.22
2023-08-29T11:43:26.042Z,101521.91
2023-08-29T11:45:48.521Z,101513.94
2023-08-29T11:48:27.388Z,101513.66
2023-08-29T11:50:55.606Z,101510.50
2023-08-29T11:53:30.687Z,101512.25
2023-08-29T11:56:00.422Z,101502.22
2023-08-29T11:58:38.976Z,101496.91
2023-08-29T12:01:06.157Z,101494.41
2023-08-29T12:03:36.361Z,101492.06
2023-08-29T12:06:05.884Z,101490.81
2023-08-29T12:08:41.058Z,101484.41
2023-08-29T12:11:11.483Z,101492.06
2023-08-29T12:13:38.485Z,101491.59
2023-08-29T12:16:16.554Z,101492.69
2023-08-29T12:18:43.728Z,101480.13
2023-08-29T12:21:21.386Z,101476.22
2023-08-29T12:23:50.552Z,101476.66
2023-08-29T12:26:17.263Z,101477.59
2023-08-29T12:28:44.276Z,101474.47
2023-08-29T12:31:11.830Z,101473.53
2023-08-29T12:33:38.707Z,101466.94
2023-08-29T12:36:05.836Z,101468.03
2023-08-29T12:38:32.746Z,101465.53
2023-08-29T12:40:59.454Z,101475.38
2023-08-29T12:43:26.212Z,101465.81
2023-08-29T12:45:59.799Z,101467.66
2023-08-29T12:48:27.515Z,101461.53
2023-08-29T12:50:57.171Z,101457.75
2023-08-29T12:53:23.842Z,101464.00
2023-08-29T12:55:51.888Z,101469.78
2023-08-29T12:58:20.878Z,101469.34
2023-08-29T13:00:50.104Z,101463.84
2023-08-29T13:03:16.987Z,101462.91
2023-08-29T13:05:44.238Z,101466.19
2023-08-29T13:08:10.888Z,101462.56
2023-08-29T13:10:40.696Z,101461.97
2023-08-29T13:13:07.324Z,101461.47
2023-08-29T13:15:45.237Z,101455.22
2023-08-29T13:18:19.720Z,101456.78
2023-08-29T13:20:46.685Z,101453.63
2023-08-29T13:23:13.357Z,101455.31
2023-08-29T13:25:42.983Z,101451.34
2023-08-29T13:28:11.869Z,101445.28
2023-08-29T13:30:38.558Z,101448.56
2023-08-29T13:33:05.431Z,101440.19
2023-08-29T13:35:32.124Z,101446.06
2023-08-29T13:37:58.797Z,101446.31
2023-08-29T13:40:25.456Z,101436.94
2023-08-29T13:42:54.404Z,101441.50
2023-08-29T13:45:21.134Z,101440.78
2023-08-29T13:47:51.096Z,101437.38
2023-08-29T13:50:20.831Z,101442.22
2023-08-29T13:52:47.466Z,101441.81
2023-08-29T13:55:14.228Z,101438.88
2023-08-29T13:57:40.932Z,101440.81
2023-08-29T14:00:08.995Z,101438.81
2023-08-29T14:02:37.961Z,101436.63
2023-08-29T14:05:05.076Z,101428.94
2023-08-29T14:07:31.715Z,101428.75
2023-08-29T14:09:58.400Z,101428.31
2023-08-29T14:12:25.035Z,101431.75
2023-08-29T14:14:51.830Z,101423.09
2023-08-29T14:17:19.651Z,101430.28
2023-08-29T14:19:46.397Z,101437.19
2023-08-29T14:22:15.215Z,101432.63
2023-08-29T14:24:46.833Z,101430.13
2023-08-29T14:27:18.139Z,101430.22
2023-08-29T14:29:47.127Z,101422.06
2023-08-29T14:32:16.087Z,101421.88
2023-08-29T14:34:45.940Z,101422.13
2023-08-29T14:37:14.618Z,101424.44
2023-08-29T14:39:41.356Z,101419.28
2023-08-29T14:42:10.186Z,101413.16
2023-08-29T14:44:36.929Z,101428.53
2023-08-29T14:47:06.695Z,101426.38
2023-08-29T14:49:33.316Z,101424.22
2023-08-29T14:52:00.061Z,101430.22
2023-08-29T14:54:26.870Z,101420.84
2023-08-29T14:56:53.628Z,101425.59
2023-08-29T14:59:20.278Z,101411.22
2023-08-29T15:01:46.915Z,101404.69
2023-08-29T15:04:18.270Z,101408.19
2023-08-29T15:06:45.018Z,101404.75
2023-08-29T15:09:11.718Z,101397.06
2023-08-29T15:11:38.541Z,101399.09
2023-08-29T15:14:05.445Z,101392.38
2023-08-29T15:16:36.286Z,101391.13
2023-08-29T15:19:07.496Z,101391.72
2023-08-29T15:21:34.125Z,101390.47
2023-08-29T15:24:00.919Z,101382.78
2023-08-29T15:26:27.719Z,101389.66
2023-08-29T15:28:57.354Z,101391.72
2023-08-29T15:31:24.026Z,101383.91
2023-08-29T15:33:53.132Z,101385.63
2023-08-29T15:36:24.738Z,101386.09
2023-08-29T15:38:51.794Z,101383.16
2023-08-29T15:41:18.457Z,101379.72
2023-08-29T15:43:46.927Z,101375.03
2023-08-29T15:46:13.683Z,101375.03
2023-08-29T15:48:40.403Z,101367.72
2023-08-29T15:51:07.096Z,101369.75
2023-08-29T15:53:37.305Z,101369.16
2023-08-29T15:56:06.237Z,101366.66
2023-08-29T15:58:35.216Z,101368.88
2023-08-29T16:01:11.603Z,101357.47
2023-08-29T16:03:38.463Z,101360.47
2023-08-29T16:06:07.697Z,101365.31
2023-08-29T16:08:39.676Z,101364.41
2023-08-29T16:11:08.690Z,101365.22
2023-08-29T16:13:37.701Z,101366.19
2023-08-29T16:16:04.680Z,101363.84
2023-08-29T16:18:32.189Z,101368.72
2023-08-29T16:21:01.068Z,101369.97
2023-08-29T16:23:29.897Z,101371.38
2023-08-29T16:25:56.624Z,101374.06
2023-08-29T16:28:24.482Z,101381.28
2023-08-29T16:30:51.239Z,101372.53
2023-08-29T16:33:21.084Z,101369.72
2023-08-29T16:35:47.729Z,101376.75
2023-08-29T16:38:14.370Z,101370.50
2023-08-29T16:40:43.328Z,101370.66
2023-08-29T16:43:09.944Z,101366.13
2023-08-29T16:45:36.594Z,101364.81
2023-08-29T16:48:03.646Z,101372.31
2023-08-29T16:50:30.298Z,101368.25
2023-08-29T16:52:57.450Z,101366.53
2023-08-29T16:55:28.817Z,101361.53
2023-08-29T16:58:00.674Z,101365.28
2023-08-29T17:00:30.176Z,101359.03
2023-08-29T17:02:59.094Z,101347.94
2023-08-29T17:05:28.377Z,101350.56
2023-08-29T17:07:55.047Z,101357.13
2023-08-29T17:10:23.007Z,101348.06
2023-08-29T17:12:49.714Z,101359.59
2023-08-29T17:15:16.400Z,101352.25
2023-08-29T17:17:43.160Z,101348.16
2023-08-29T17:20:10.707Z,101350.34
2023-08-29T17:22:37.331Z,101348.09
2023-08-29T17:25:04.452Z,101342.63
2023-08-29T17:27:36.024Z,101343.19
2023-08-29T17:30:06.526Z,101332.25
2023-08-29T17:32:36.165Z,101330.34
2023-08-29T17:35:03.044Z,101321.28
2023-08-29T17:37:31.948Z,101320.97
2023-08-29T17:39:58.747Z,101320.66
2023-08-29T17:42:25.534Z,101315.19
2023-08-29T17:44:53.279Z,101311.72
2023-08-29T17:47:19.993Z,101313.44
2023-08-29T17:49:46.672Z,101304.69
2023-08-29T17:52:13.407Z,101300.78
2023-08-29T17:54:42.549Z,101299.34
2023-08-29T17:57:09.194Z,101301.06
2023-08-29T17:59:35.872Z,101299.63
2023-08-29T18:02:05.271Z,101295.72
2023-08-29T18:04:34.227Z,101297.09
2023-08-29T18:07:00.945Z,101290.06
2023-08-29T18:09:27.597Z,101288.94
2023-08-29T18:11:56.336Z,101294.22
2023-08-29T18:14:22.994Z,101292.34
2023-08-29T18:16:50.951Z,101287.22
2023-08-29T18:19:17.706Z,101276.88
2023-08-29T18:21:46.900Z,101274.53
2023-08-29T18:24:15.937Z,101269.06
2023-08-29T18:26:44.856Z,101271.41
2023-08-29T18:29:13.965Z,101260.19
2023-08-29T18:31:40.715Z,101263.34
2023-08-29T18:34:07.372Z,101260.94
2023-08-29T18:36:38.903Z,101258.16
2023-08-29T18:39:10.888Z,101252.25
2023-08-29T18:41:37.501Z,101251.63
2023-08-29T18:44:06.497Z,101255.41
2023-08-29T18:46:35.408Z,101247.63
2023-08-29T18:49:04.640Z,101247.03
2023-08-29T18:51:31.309Z,101243.59
2023-08-29T18:53:57.997Z,101242.19
2023-08-29T18:56:24.665Z,101230.50
2023-08-29T18:58:51.363Z,101234.72
2023-08-29T19:01:18.116Z,101230.22
2023-08-29T19:03:44.911Z,101233.34
2023-08-29T19:06:15.078Z,101238.00
2023-08-29T19:08:41.949Z,101226.66
2023-08-29T19:11:12.820Z,101231.34
2023-08-29T19:13:41.622Z,101231.06
2023-08-29T19:16:08.497Z,101238.41
2023-08-29T19:18:40.222Z,101229.50
2023-08-29T19:21:07.295Z,101227.63
2023-08-29T19:23:34.012Z,101227.31
2023-08-29T19:26:00.696Z,101227.75
2023-08-29T19:28:32.067Z,101221.06
2023-08-29T19:30:58.735Z,101220.75
2023-08-29T19:33:25.548Z,101214.34
2023-08-29T19:35:52.229Z,101219.97
2023-08-29T19:38:18.859Z,101221.19
2023-08-29T19:40:50.017Z,101224.00
2023-08-29T19:43:18.902Z,101218.38
2023-08-29T19:45:45.514Z,101213.56
2023-08-29T19:48:14.541Z,101208.72
2023-08-29T19:50:41.255Z,101201.53
2023-08-29T19:53:07.893Z,101202.63
2023-08-29T19:55:37.009Z,101200.91
2023-08-29T19:58:03.919Z,101202.47
2023-08-29T20:00:32.926Z,101196.84
2023-08-29T20:03:01.447Z,101194.81
2023-08-29T20:05:30.483Z,101196.09
2023-08-29T20:07:58.965Z,101189.66
2023-08-29T20:10:26.791Z,101197.31
2023-08-29T20:12:55.705Z,101192.97
2023-08-29T20:15:22.326Z,101192.16
2023-08-29T20:17:51.501Z,101187.03
2023-08-29T20:20:18.197Z,101183.41
2023-08-29T20:22:47.233Z,101179.03
2023-08-29T20:25:16.331Z,101171.88
2023-08-29T20:27:45.179Z,101175.91
2023-08-29T20:30:12.380Z,101169.53
2023-08-29T20:32:42.078Z,101157.97
2023-08-29T20:35:11.979Z,101160.63
2023-08-29T20:37:38.667Z,101166.38
2023-08-29T20:40:08.853Z,101162.16
2023-08-29T20:42:37.110Z,101164.34
2023-08-29T20:45:04.848Z,101157.34
2023-08-29T20:47:31.538Z,101157.47
2023-08-29T20:49:58.188Z,101156.41
2023-08-29T20:52:29.259Z,101157.34
2023-08-29T20:54:58.148Z,101162.13
2023-08-29T20:57:24.780Z,101157.00
2023-08-29T20:59:51.366Z,101163.09
2023-08-29T21:02:18.010Z,101156.69
2023-08-29T21:04:44.965Z,101166.38
2023-08-29T21:07:11.843Z,101161.97
2023-08-29T21:09:38.510Z,101159.66
2023-08-29T21:12:06.309Z,101150.91
2023-08-29T21:14:32.990Z,101144.50
2023-08-29T21:16:59.669Z,101149.97
2023-08-29T21:19:26.321Z,101149.94
2023-08-29T21:21:52.947Z,101145.88
2023-08-29T21:24:21.804Z,101143.38
2023-08-29T21:26:50.684Z,101148.50
2023-08-29T21:29:19.569Z,101138.34
2023-08-29T21:31:46.350Z,101136.13
2023-08-29T21:34:15.449Z,101131.94
2023-08-29T21:36:42.105Z,101139.72
2023-08-29T21:39:10.872Z,101127.06
2023-08-29T21:41:43.521Z,101134.38
2023-08-29T21:44:11.830Z,101137.34
2023-08-29T21:46:41.072Z,101134.22
2023-08-29T21:49:07.718Z,101135.13
2023-08-29T21:51:36.889Z,101134.03
2023-08-29T21:54:05.768Z,101131.66
2023-08-29T21:56:32.416Z,101136.19
2023-08-29T21:58:59.150Z,101135.88
2023-08-29T22:01:25.888Z,101131.94
2023-08-29T22:03:52.561Z,101132.41
2023-08-29T22:06:19.284Z,101132.88
2023-08-29T22:08:45.972Z,101126.94
2023-08-29T22:11:12.687Z,101134.25
2023-08-29T22:13:44.040Z,101132.69
2023-08-29T22:16:13.192Z,101128.81
2023-08-29T22:18:40.011Z,101122.88
2023-08-29T22:21:09.713Z,101125.34
2023-08-29T22:23:36.353Z,101125.78
2023-08-29T22:26:09.485Z,101117.53
2023-08-29T22:28:36.269Z,101124.38
2023-08-29T22:31:03.021Z,101129.69
2023-08-29T22:33:32.236Z,101131.38
2023-08-29T22:35:59.390Z,101131.06
2023-08-29T22:38:28.290Z,101128.72
2023-08-29T22:41:15.385Z,101124.34
2023-08-29T22:43:42.462Z,101113.25
2023-08-29T22:46:11.179Z,101117.28
2023-08-29T22:48:37.920Z,101110.59
2023-08-29T22:51:05.393Z,101114.31
2023-08-29T22:53:32.015Z,101110.38
2023-08-29T22:56:03.741Z,101114.13
2023-08-29T22:58:30.411Z,101111.47
2023-08-29T23:00:57.048Z,101115.97
2023-08-29T23:03:23.713Z,101107.69
2023-08-29T23:05:50.392Z,101105.31
2023-08-29T23:08:17.422Z,101106.56
2023-08-29T23:10:44.456Z,101108.59
2023-08-29T23:13:13.337Z,101098.63
2023-08-29T23:15:40.077Z,101099.84
2023-08-29T23:18:11.811Z,101093.47
2023-08-29T23:20:38.790Z,101092.38
2023-08-29T23:23:10.169Z,101097.66
2023-08-29T23:25:36.858Z,101085.34
2023-08-29T23:28:03.694Z,101079.88
2023-08-29T23:30:32.868Z,101083.56
2023-08-29T23:33:04.332Z,101085.72
2023-08-29T23:35:31.047Z,101083.88
2023-08-29T23:37:57.683Z,101085.53
2023-08-29T23:40:24.339Z,101083.63
2023-08-29T23:42:50.960Z,101092.47
2023-08-29T23:45:19.795Z,101096.22
2023-08-29T23:47:49.176Z,101092.28
2023-08-29T23:50:18.209Z,101090.72
2023-08-29T23:52:44.864Z,101082.44
2023-08-29T23:55:11.470Z,101086.50
2023-08-29T23:57:38.168Z,101086.94
